Terminal Aerodrome Forecast
Issued by NWS St Louis, MO

Home | Current Version | Previous Version | Text Only | Print | Product List | Glossary On
Versions: 1 2 3 4 5 6 7 8 9 10 11 12 13 14 15 16 17 18 19 20 21 22
317
FTUS43 KLSX 051125
TAFCOU
TAF
KCOU 051125Z 0512/0612 12005KT 1SM BR OVC003
      TEMPO 0512/0515 1/4SM FG VV001
     FM051600 16007KT 2SM BR OVC008
     FM051800 16008KT P6SM FEW250
     FM060500 14004KT P6SM VCSH BKN050
     FM060800 VRB03KT P6SM BKN015=

USA.gov is the U.S. government's official web portal to all federal, state and local government web resources and services.